createdAt,value
2022-08-08T00:00:50.129Z,24.66
2022-08-08T00:02:50.398Z,24.76
2022-08-08T00:06:03.343Z,24.63
2022-08-08T00:08:56.566Z,24.56
2022-08-08T00:12:07.653Z,24.50
2022-08-08T00:15:05.326Z,24.49
2022-08-08T00:18:01.847Z,24.39
2022-08-08T00:20:57.855Z,24.24
2022-08-08T00:23:54.470Z,24.11
2022-08-08T00:26:54.729Z,24.12
2022-08-08T00:30:11.315Z,24.13
2022-08-08T00:33:15.939Z,24.02
2022-08-08T00:36:25.650Z,24.05
2022-08-08T00:41:09.933Z,24.12
2022-08-08T00:42:41.755Z,23.98
2022-08-08T00:45:51.160Z,23.83
2022-08-08T00:49:01.325Z,24.01
2022-08-08T00:52:03.512Z,23.91
2022-08-08T00:55:09.394Z,23.93
2022-08-08T00:58:19.591Z,24.02
2022-08-08T01:01:39.169Z,23.90
2022-08-08T01:05:04.775Z,23.91
2022-08-08T01:08:09.623Z,23.78
2022-08-08T01:11:37.976Z,23.86
2022-08-08T01:14:53.985Z,23.99
2022-08-08T01:18:02.428Z,23.97
2022-08-08T01:20:49.509Z,23.68
2022-08-08T01:24:13.539Z,23.82
2022-08-08T01:27:24.203Z,23.81
2022-08-08T01:30:20.304Z,23.62
2022-08-08T01:34:00.915Z,23.55
2022-08-08T01:37:57.413Z,23.59
2022-08-08T01:41:00.377Z,23.60
2022-08-08T01:43:53.462Z,23.66
2022-08-08T01:47:05.938Z,23.67
2022-08-08T01:50:43.115Z,23.73
2022-08-08T01:55:14.939Z,23.71
2022-08-08T01:57:17.489Z,23.75
2022-08-08T02:00:27.960Z,23.73
2022-08-08T02:03:54.335Z,23.56
2022-08-08T02:06:43.781Z,23.74
2022-08-08T02:10:03.272Z,23.77
2022-08-08T02:13:03.171Z,23.66
2022-08-08T02:16:09.646Z,23.52
2022-08-08T02:19:57.465Z,23.61
2022-08-08T02:23:16.486Z,23.51
2022-08-08T02:26:15.789Z,23.54
2022-08-08T02:29:21.297Z,23.44
2022-08-08T02:32:45.179Z,23.53
2022-08-08T02:36:04.334Z,23.27
2022-08-08T02:39:42.069Z,23.28
2022-08-08T02:42:41.605Z,23.21
2022-08-08T02:45:59.007Z,23.34
2022-08-08T02:49:00.929Z,23.08
2022-08-08T02:51:56.827Z,23.20
2022-08-08T02:54:56.161Z,23.06
2022-08-08T02:57:55.274Z,22.96
2022-08-08T03:01:14.999Z,23.00
2022-08-08T03:05:04.227Z,22.79
2022-08-08T03:07:58.750Z,22.67
2022-08-08T03:11:47.547Z,22.83
2022-08-08T03:16:01.433Z,22.75
2022-08-08T03:18:32.487Z,22.64
2022-08-08T03:21:19.311Z,22.64
2022-08-08T03:24:17.656Z,22.57
2022-08-08T03:27:16.335Z,22.52
2022-08-08T03:30:09.163Z,22.56
2022-08-08T03:33:58.747Z,22.50
2022-08-08T03:36:30.612Z,22.65
2022-08-08T03:39:18.250Z,22.58
2022-08-08T03:42:28.778Z,22.62
2022-08-08T03:46:07.482Z,22.41
2022-08-08T03:49:09.072Z,22.54
2022-08-08T03:51:50.329Z,22.49
2022-08-08T03:54:51.527Z,22.68
2022-08-08T03:58:35.512Z,22.31
2022-08-08T04:01:02.787Z,22.22
2022-08-08T04:04:04.569Z,22.23
2022-08-08T04:07:01.464Z,22.38
2022-08-08T04:10:00.418Z,22.29
2022-08-08T04:12:53.946Z,22.51
2022-08-08T04:15:54.625Z,22.42
2022-08-08T04:18:48.974Z,22.12
2022-08-08T04:21:38.097Z,22.15
2022-08-08T04:24:30.933Z,22.08
2022-08-08T04:27:19.772Z,22.33
2022-08-08T04:30:25.460Z,22.11
2022-08-08T04:33:12.533Z,22.01
2022-08-08T04:36:02.954Z,22.03
2022-08-08T04:39:20.331Z,22.00
2022-08-08T04:41:58.465Z,22.07
2022-08-08T04:44:47.475Z,21.61
2022-08-08T04:47:36.614Z,21.94
2022-08-08T04:50:38.325Z,21.69
2022-08-08T04:53:52.098Z,21.83
2022-08-08T04:56:33.474Z,21.64
2022-08-08T04:59:24.288Z,21.77
2022-08-08T05:02:20.221Z,21.90
2022-08-08T05:05:20.070Z,21.82
2022-08-08T05:08:07.564Z,21.83
2022-08-08T05:10:59.891Z,21.97
2022-08-08T05:13:58.147Z,22.14
2022-08-08T05:17:00.634Z,22.32
2022-08-08T05:20:11.903Z,22.05
2022-08-08T05:22:55.819Z,22.07
2022-08-08T05:25:46.737Z,22.33
2022-08-08T05:28:56.017Z,22.43
2022-08-08T05:32:02.993Z,21.90
2022-08-08T05:34:50.499Z,22.10
2022-08-08T05:37:53.094Z,22.16
2022-08-08T05:40:51.383Z,22.13
2022-08-08T05:44:03.963Z,21.99
2022-08-08T05:46:54.026Z,21.99
2022-08-08T05:49:55.938Z,21.84
2022-08-08T05:52:44.217Z,21.97
2022-08-08T05:56:11.248Z,22.16
2022-08-08T05:58:57.382Z,22.13
2022-08-08T06:01:57.306Z,22.21
2022-08-08T06:04:47.753Z,22.17
2022-08-08T06:07:43.867Z,22.32
2022-08-08T06:10:34.659Z,22.27
2022-08-08T06:13:23.299Z,22.22
2022-08-08T06:16:13.266Z,22.58
2022-08-08T06:19:02.044Z,22.39
2022-08-08T06:21:57.520Z,22.47
2022-08-08T06:24:47.324Z,22.45
2022-08-08T06:27:55.368Z,22.42
2022-08-08T06:30:44.969Z,22.57
2022-08-08T06:34:26.280Z,22.44
2022-08-08T06:36:53.773Z,22.42
2022-08-08T06:39:56.089Z,22.54
2022-08-08T06:43:10.648Z,22.67
2022-08-08T06:45:58.115Z,22.80
2022-08-08T06:48:45.925Z,22.47
2022-08-08T06:51:47.233Z,22.53
2022-08-08T06:54:42.390Z,22.46
2022-08-08T06:57:54.107Z,22.51
2022-08-08T07:00:43.217Z,22.45
2022-08-08T07:04:38.614Z,22.71
2022-08-08T07:07:11.284Z,22.87
2022-08-08T07:10:09.829Z,22.61
2022-08-08T07:13:07.505Z,22.63
2022-08-08T07:16:10.287Z,22.91
2022-08-08T07:19:22.107Z,22.91
2022-08-08T07:22:11.926Z,23.08
2022-08-08T07:25:06.739Z,23.45
2022-08-08T07:28:07.767Z,23.60
2022-08-08T07:30:58.760Z,23.67
2022-08-08T07:33:53.362Z,23.61
2022-08-08T07:36:50.511Z,23.61
2022-08-08T07:39:45.702Z,23.55
2022-08-08T07:42:44.709Z,23.69
2022-08-08T07:45:34.892Z,23.71
2022-08-08T07:48:38.601Z,24.06
2022-08-08T07:51:45.442Z,24.53
2022-08-08T07:54:51.886Z,24.06
2022-08-08T07:58:12.735Z,24.21
2022-08-08T08:01:04.441Z,24.04
2022-08-08T08:04:03.096Z,23.94
2022-08-08T08:06:50.858Z,24.53
2022-08-08T08:09:40.558Z,24.53
2022-08-08T08:12:35.212Z,24.60
2022-08-08T08:15:26.732Z,24.56
2022-08-08T08:18:31.656Z,24.78
2022-08-08T08:21:20.104Z,24.67
2022-08-08T08:24:32.095Z,24.77
2022-08-08T08:27:21.956Z,24.50
2022-08-08T08:30:09.570Z,25.08
2022-08-08T08:32:56.742Z,25.19
2022-08-08T08:36:18.703Z,25.11
2022-08-08T08:38:53.415Z,25.31
2022-08-08T08:41:42.384Z,25.24
2022-08-08T08:44:35.515Z,25.20
2022-08-08T08:47:25.701Z,25.26
2022-08-08T08:50:17.112Z,25.17
2022-08-08T08:53:54.405Z,25.28
2022-08-08T08:56:28.609Z,25.62
2022-08-08T08:59:19.667Z,25.34
2022-08-08T09:02:22.035Z,25.51
2022-08-08T09:05:29.063Z,26.02
2022-08-08T09:08:20.720Z,25.72
2022-08-08T09:11:08.364Z,25.87
2022-08-08T09:13:56.270Z,26.16
2022-08-08T09:16:44.620Z,25.89
2022-08-08T09:21:54.016Z,26.18
2022-08-08T09:22:42.779Z,26.01
2022-08-08T09:25:36.020Z,26.12
2022-08-08T09:28:43.855Z,26.25
2022-08-08T09:31:42.238Z,25.92
2022-08-08T09:34:35.316Z,26.03
2022-08-08T09:37:58.611Z,25.85
2022-08-08T09:40:47.837Z,26.03
2022-08-08T09:44:05.403Z,26.03
2022-08-08T09:47:26.539Z,26.51
2022-08-08T09:50:23.560Z,26.36
2022-08-08T09:53:23.525Z,26.52
2022-08-08T09:56:21.735Z,26.58
2022-08-08T09:59:50.422Z,26.49
2022-08-08T10:02:25.091Z,26.70
2022-08-08T10:05:22.835Z,26.57
2022-08-08T10:08:12.748Z,26.96
2022-08-08T10:11:01.958Z,27.15
2022-08-08T10:14:28.527Z,27.12
2022-08-08T10:17:56.013Z,27.06
2022-08-08T10:20:41.435Z,26.96
2022-08-08T10:23:59.888Z,27.16
2022-08-08T10:26:58.955Z,27.16
2022-08-08T10:29:58.651Z,27.46
2022-08-08T10:33:09.227Z,27.61
2022-08-08T10:36:09.169Z,27.77
2022-08-08T10:39:09.259Z,27.42
2022-08-08T10:42:16.291Z,27.53
2022-08-08T10:45:09.130Z,27.51
2022-08-08T10:47:58.991Z,27.89
2022-08-08T10:50:46.567Z,28.14
2022-08-08T10:53:56.377Z,28.45
2022-08-08T10:56:46.205Z,28.29
2022-08-08T10:59:39.867Z,27.97
2022-08-08T11:02:31.919Z,27.92
2022-08-08T11:05:23.108Z,28.12
2022-08-08T11:08:38.865Z,28.10
2022-08-08T11:11:31.957Z,28.32
2022-08-08T11:14:35.403Z,28.52
2022-08-08T11:17:58.392Z,28.50
2022-08-08T11:20:33.036Z,28.79
2022-08-08T11:23:21.968Z,28.58
2022-08-08T11:26:19.420Z,28.67
2022-08-08T11:29:07.879Z,28.88
2022-08-08T11:31:57.334Z,28.59
2022-08-08T11:35:29.561Z,28.46
2022-08-08T11:38:39.646Z,28.37
2022-08-08T11:41:05.486Z,28.54
2022-08-08T11:43:54.431Z,28.70
2022-08-08T11:46:45.055Z,28.61
2022-08-08T11:49:40.784Z,28.77
2022-08-08T11:52:31.668Z,28.73
2022-08-08T11:55:23.479Z,29.38
2022-08-08T11:58:15.655Z,29.28
2022-08-08T12:01:12.356Z,29.08
2022-08-08T12:04:04.883Z,28.99
2022-08-08T12:07:03.554Z,29.36
2022-08-08T12:09:59.699Z,29.30
2022-08-08T12:12:49.351Z,29.28
2022-08-08T12:15:47.003Z,29.31
2022-08-08T12:18:45.057Z,29.15
2022-08-08T12:21:59.668Z,29.39
2022-08-08T12:24:53.948Z,29.85
2022-08-08T12:27:45.729Z,30.01
2022-08-08T12:30:36.220Z,29.70
2022-08-08T12:33:37.701Z,29.80
2022-08-08T12:36:46.355Z,29.43
2022-08-08T12:40:00.495Z,29.34
2022-08-08T12:42:49.091Z,29.48
2022-08-08T12:45:58.770Z,30.02
2022-08-08T12:49:22.328Z,29.91
2022-08-08T12:52:04.878Z,29.85
2022-08-08T12:55:14.378Z,29.98
2022-08-08T12:58:09.900Z,30.13
2022-08-08T13:01:11.121Z,30.15
2022-08-08T13:03:58.339Z,30.16
2022-08-08T13:08:04.493Z,29.84
2022-08-08T13:10:36.344Z,30.01
2022-08-08T13:13:37.547Z,30.65
2022-08-08T13:16:26.404Z,30.41
2022-08-08T13:19:18.165Z,30.44
2022-08-08T13:22:08.492Z,30.56
2022-08-08T13:24:56.578Z,30.38
2022-08-08T13:27:54.483Z,30.66
2022-08-08T13:30:43.631Z,30.71
2022-08-08T13:33:42.845Z,30.29
2022-08-08T13:36:30.568Z,30.46
2022-08-08T13:39:20.193Z,30.66
2022-08-08T13:42:07.583Z,31.00
2022-08-08T13:44:56.422Z,30.92
2022-08-08T13:47:54.205Z,30.56
2022-08-08T13:50:50.947Z,30.89
2022-08-08T13:53:53.436Z,30.61
2022-08-08T13:57:00.659Z,30.65
2022-08-08T13:59:49.465Z,30.75
2022-08-08T14:02:41.196Z,31.17
2022-08-08T14:05:36.121Z,31.29
2022-08-08T14:08:45.866Z,31.41
2022-08-08T14:11:34.092Z,31.37
2022-08-08T14:14:26.967Z,31.11
2022-08-08T14:17:22.468Z,31.42
2022-08-08T14:20:57.517Z,31.21
2022-08-08T14:24:04.215Z,31.18
2022-08-08T14:26:55.056Z,30.94
2022-08-08T14:29:53.344Z,31.12
2022-08-08T14:32:52.760Z,31.45
2022-08-08T14:35:41.910Z,32.13
2022-08-08T14:38:52.689Z,32.14
2022-08-08T14:41:54.072Z,31.73
2022-08-08T14:44:41.958Z,31.78
2022-08-08T14:47:30.330Z,31.33
2022-08-08T14:50:38.388Z,31.82
2022-08-08T14:53:37.275Z,31.70
2022-08-08T14:56:25.850Z,31.70
2022-08-08T14:59:22.108Z,32.07
2022-08-08T15:02:23.052Z,32.34
2022-08-08T15:05:13.238Z,32.70
2022-08-08T15:08:00.980Z,33.17
2022-08-08T15:10:48.106Z,32.32
2022-08-08T15:13:40.688Z,32.46
2022-08-08T15:16:45.121Z,32.48
2022-08-08T15:19:34.448Z,31.98
2022-08-08T15:22:23.543Z,32.54
2022-08-08T15:25:17.900Z,32.47
2022-08-08T15:28:32.598Z,32.58
2022-08-08T15:32:02.618Z,33.21
2022-08-08T15:34:32.287Z,32.52
2022-08-08T15:37:19.795Z,32.50
2022-08-08T15:40:11.243Z,32.85
2022-08-08T15:43:02.315Z,32.57
2022-08-08T15:46:06.050Z,32.98
2022-08-08T15:48:53.104Z,32.70
2022-08-08T15:51:40.272Z,32.92
2022-08-08T15:54:38.515Z,32.13
2022-08-08T15:57:27.630Z,32.45
2022-08-08T16:00:27.006Z,32.38
2022-08-08T16:03:15.273Z,32.01
2022-08-08T16:06:02.676Z,32.24
2022-08-08T16:13:00.585Z,32.22
2022-08-08T16:13:10.363Z,32.70
2022-08-08T16:15:05.422Z,32.34
2022-08-08T16:18:06.342Z,32.91
2022-08-08T16:21:00.225Z,32.97
2022-08-08T16:23:48.043Z,34.54
2022-08-08T16:26:38.531Z,34.93
2022-08-08T16:29:37.783Z,33.79
2022-08-08T16:32:38.591Z,35.20
2022-08-08T16:35:28.172Z,37.33
2022-08-08T16:38:31.443Z,36.79
2022-08-08T16:41:21.113Z,38.49
2022-08-08T16:44:12.689Z,36.96
2022-08-08T16:47:17.197Z,37.62
2022-08-08T16:50:11.119Z,38.62
2022-08-08T16:55:06.471Z,39.03
2022-08-08T16:56:14.139Z,38.77
2022-08-08T16:59:02.352Z,38.32
2022-08-08T17:01:50.781Z,39.79
2022-08-08T17:04:37.694Z,36.22
2022-08-08T17:07:26.121Z,37.87
2022-08-08T17:10:16.860Z,36.87
2022-08-08T17:13:06.556Z,39.58
2022-08-08T17:15:54.446Z,37.76
2022-08-08T17:18:41.751Z,38.24
2022-08-08T17:21:41.459Z,39.79
2022-08-08T17:24:30.704Z,38.73
2022-08-08T17:27:17.783Z,39.23
2022-08-08T17:30:08.199Z,37.43
2022-08-08T17:34:52.982Z,37.41
2022-08-08T17:36:12.911Z,38.87
2022-08-08T17:39:45.703Z,37.32
2022-08-08T17:42:17.945Z,39.16
2022-08-08T17:45:06.282Z,37.17
2022-08-08T17:47:54.569Z,38.17
2022-08-08T17:50:41.890Z,38.33
2022-08-08T17:53:43.607Z,38.61
2022-08-08T17:56:30.951Z,37.37
2022-08-08T17:59:23.474Z,38.99
2022-08-08T18:02:28.659Z,38.21
2022-08-08T18:05:22.344Z,36.28
2022-08-08T18:08:10.298Z,37.60
2022-08-08T18:10:57.603Z,36.81
2022-08-08T18:13:46.299Z,35.40
2022-08-08T18:16:34.259Z,36.87
2022-08-08T18:19:21.791Z,36.24
2022-08-08T18:22:49.754Z,34.44
2022-08-08T18:25:19.083Z,34.78
2022-08-08T18:28:06.301Z,34.52
2022-08-08T18:31:00.232Z,34.69
2022-08-08T18:34:11.459Z,34.06
2022-08-08T18:36:58.496Z,33.55
2022-08-08T18:39:46.825Z,32.33
2022-08-08T18:42:36.194Z,30.87
2022-08-08T18:46:00.451Z,30.37
2022-08-08T18:48:33.533Z,30.15
2022-08-08T18:51:48.336Z,29.97
2022-08-08T18:54:29.952Z,29.86
2022-08-08T18:57:18.107Z,29.77
2022-08-08T19:00:09.539Z,29.58
2022-08-08T19:03:06.206Z,29.48
2022-08-08T19:05:53.866Z,29.46
2022-08-08T19:08:41.179Z,29.37
2022-08-08T19:11:32.017Z,29.32
2022-08-08T19:14:22.503Z,29.26
2022-08-08T19:17:10.946Z,29.20
2022-08-08T19:20:02.172Z,29.04
2022-08-08T19:22:50.214Z,29.07
2022-08-08T19:26:01.385Z,29.12
2022-08-08T19:28:45.191Z,29.08
2022-08-08T19:31:35.793Z,28.97
2022-08-08T19:34:36.806Z,29.14
2022-08-08T19:37:43.403Z,28.94
2022-08-08T19:40:33.889Z,28.91
2022-08-08T19:43:28.103Z,28.84
2022-08-08T19:46:15.677Z,28.75
2022-08-08T19:49:10.081Z,28.63
2022-08-08T19:51:57.124Z,28.60
2022-08-08T19:54:45.295Z,28.43
2022-08-08T19:57:35.488Z,28.32
2022-08-08T20:00:29.379Z,28.23
2022-08-08T20:04:01.492Z,28.18
2022-08-08T20:06:24.369Z,28.11
2022-08-08T20:09:11.286Z,28.05
2022-08-08T20:12:08.542Z,28.00
2022-08-08T20:14:56.534Z,27.93
2022-08-08T20:17:47.496Z,27.88
2022-08-08T20:20:36.044Z,27.71
2022-08-08T20:23:30.315Z,27.75
2022-08-08T20:26:17.533Z,27.78
2022-08-08T20:29:11.214Z,27.59
2022-08-08T20:32:10.223Z,27.59
2022-08-08T20:35:02.166Z,27.43
2022-08-08T20:37:53.275Z,27.32
2022-08-08T20:40:41.965Z,27.24
2022-08-08T20:43:44.021Z,27.17
2022-08-08T20:46:35.679Z,27.16
2022-08-08T20:49:25.262Z,27.14
2022-08-08T20:52:29.810Z,27.07
2022-08-08T20:55:22.607Z,27.04
2022-08-08T20:58:13.732Z,26.99
2022-08-08T21:01:19.412Z,26.86
2022-08-08T21:04:07.416Z,26.79
2022-08-08T21:06:57.904Z,26.82
2022-08-08T21:10:01.488Z,26.72
2022-08-08T21:12:52.915Z,26.56
2022-08-08T21:16:05.545Z,26.57
2022-08-08T21:18:48.671Z,26.63
2022-08-08T21:21:41.372Z,26.56
2022-08-08T21:24:30.634Z,26.46
2022-08-08T21:28:05.830Z,26.45
2022-08-08T21:30:24.776Z,26.34
2022-08-08T21:33:11.907Z,26.34
2022-08-08T21:36:17.739Z,26.23
2022-08-08T21:39:06.259Z,26.27
2022-08-08T21:41:59.085Z,26.51
2022-08-08T21:44:58.633Z,26.53
2022-08-08T21:48:12.916Z,26.62
2022-08-08T21:50:53.392Z,26.54
2022-08-08T21:54:27.116Z,26.56
2022-08-08T21:56:48.156Z,26.52
2022-08-08T22:00:01.904Z,26.59
2022-08-08T22:02:45.096Z,26.79
2022-08-08T22:05:32.598Z,26.72
2022-08-08T22:08:25.790Z,26.76
2022-08-08T22:12:02.208Z,26.75
2022-08-08T22:14:32.011Z,26.68
2022-08-08T22:17:19.428Z,26.56
2022-08-08T22:20:12.036Z,26.44
2022-08-08T22:23:07.774Z,26.38
2022-08-08T22:26:27.730Z,26.30
2022-08-08T22:29:14.965Z,26.32
2022-08-08T22:32:10.630Z,26.30
2022-08-08T22:34:58.160Z,26.30
2022-08-08T22:37:53.628Z,26.27
2022-08-08T22:40:41.595Z,26.25
2022-08-08T22:43:28.910Z,26.44
2022-08-08T22:46:19.166Z,26.45
2022-08-08T22:49:06.600Z,26.49
2022-08-08T22:51:56.309Z,26.32
2022-08-08T22:54:58.752Z,26.15
2022-08-08T22:57:50.807Z,26.00
2022-08-08T23:00:38.957Z,26.05
2022-08-08T23:03:34.216Z,26.05
2022-08-08T23:06:33.531Z,25.98
2022-08-08T23:09:20.449Z,25.96
2022-08-08T23:12:39.337Z,25.96
2022-08-08T23:16:40.598Z,25.90
2022-08-08T23:18:32.798Z,25.92
2022-08-08T23:21:19.743Z,25.96
2022-08-08T23:24:08.280Z,25.97
2022-08-08T23:26:56.424Z,25.91
2022-08-08T23:29:44.280Z,25.92
2022-08-08T23:32:44.203Z,25.84
2022-08-08T23:35:34.397Z,25.81
2022-08-08T23:38:44.378Z,25.71
2022-08-08T23:41:31.800Z,25.65
2022-08-08T23:44:34.405Z,25.53
2022-08-08T23:49:07.543Z,25.72
2022-08-08T23:50:34.259Z,25.57
2022-08-08T23:54:04.770Z,25.47
2022-08-08T23:56:32.243Z,25.45
2022-08-08T23:59:21.183Z,25.43
